Time;durP1;ratioP1;P1;durP2;ratioP2;P2;SDS_P1;SDS_P2;PMS_P1;PMS_P2;Temp;Humidity;BMP_temperature;BMP_pressure;BME280_temperature;BME280_humidity;BME280_pressure;Samples;Min_cycle;Max_cycle;Signal;HPM_P1;HPM_P2
2021/04/04 00:00:10;;;;;;;18.13;5.93;;;2.80;84.70;;;;;;5041029;28;20104;-75
2021/04/04 00:02:35;;;;;;;19.75;5.78;;;2.70;84.90;;;;;;5054937;28;20056;-75
2021/04/04 00:05:01;;;;;;;23.40;5.40;;;2.80;87.00;;;;;;5040447;28;20044;-75
2021/04/04 00:07:26;;;;;;;24.02;5.75;;;3.00;87.10;;;;;;5054812;28;20164;-75
2021/04/04 00:09:52;;;;;;;25.17;6.82;;;3.00;86.30;;;;;;5054784;28;20040;-76
2021/04/04 00:12:17;;;;;;;20.20;5.95;;;3.00;86.50;;;;;;5051689;28;20041;-75
2021/04/04 00:14:43;;;;;;;22.67;6.00;;;3.00;86.90;;;;;;5052510;28;20033;-75
2021/04/04 00:17:08;;;;;;;34.05;7.35;;;3.10;87.30;;;;;;5050142;28;20040;-75
2021/04/04 00:19:34;;;;;;;27.60;6.80;;;3.20;87.90;;;;;;5033198;28;20074;-75
2021/04/04 00:22:00;;;;;;;19.02;7.53;;;3.20;87.90;;;;;;5048478;28;20083;-75
2021/04/04 00:24:25;;;;;;;24.45;6.00;;;3.30;88.20;;;;;;5034980;28;20128;-75
2021/04/04 00:26:51;;;;;;;23.92;5.47;;;3.30;88.10;;;;;;5049048;28;20627;-75
2021/04/04 00:29:16;;;;;;;20.13;6.28;;;3.30;88.60;;;;;;5028736;28;20037;-75
2021/04/04 00:31:42;;;;;;;27.23;6.50;;;3.30;88.60;;;;;;5043621;28;20039;-74
2021/04/04 00:34:07;;;;;;;24.55;6.30;;;3.30;87.90;;;;;;5047760;28;20055;-75
2021/04/04 00:36:33;;;;;;;20.88;6.00;;;3.30;88.90;;;;;;5032571;28;20094;-75
2021/04/04 00:38:59;;;;;;;23.00;5.68;;;3.40;89.60;;;;;;5033219;28;20444;-75
2021/04/04 00:41:24;;;;;;;21.67;5.65;;;3.50;89.70;;;;;;5048381;28;20029;-75
2021/04/04 00:43:50;;;;;;;25.50;5.75;;;3.50;89.40;;;;;;5031111;28;20044;-75
2021/04/04 00:46:15;;;;;;;25.48;5.65;;;3.60;88.70;;;;;;5046185;28;20033;-74
2021/04/04 00:48:41;;;;;;;23.02;6.05;;;3.60;89.20;;;;;;5030840;28;20029;-75
2021/04/04 00:51:06;;;;;;;25.90;6.40;;;3.60;88.50;;;;;;5015156;28;20110;-75
2021/04/04 00:53:32;;;;;;;25.80;5.38;;;3.60;89.30;;;;;;5037585;28;20445;-76
2021/04/04 00:55:58;;;;;;;32.80;7.10;;;3.60;88.00;;;;;;5018793;28;20036;-75
2021/04/04 00:58:23;;;;;;;23.42;5.97;;;3.60;87.90;;;;;;5016890;28;20040;-75
2021/04/04 01:00:49;;;;;;;24.13;6.13;;;3.70;88.60;;;;;;5017567;28;20111;-75
2021/04/04 01:03:14;;;;;;;24.77;5.72;;;3.70;88.30;;;;;;5051794;28;20032;-76
2021/04/04 01:05:47;;;;;;;22.58;5.18;;;3.80;88.30;;;;;;5026929;28;20030;-75
2021/04/04 01:08:12;;;;;;;25.02;5.85;;;3.80;87.70;;;;;;5032246;28;20061;-74
2021/04/04 01:10:40;;;;;;;18.15;5.07;;;3.80;88.40;;;;;;5029125;28;20048;-75
2021/04/04 01:13:17;;;;;;;16.80;4.85;;;3.80;88.60;;;;;;5029911;28;20044;-75
2021/04/04 01:15:48;;;;;;;29.95;6.15;;;3.90;88.40;;;;;;5029465;28;20083;-75
2021/04/04 01:18:54;;;;;;;23.90;5.93;;;3.90;88.20;;;;;;5046905;28;20037;-75
2021/04/04 01:21:27;;;;;;;15.05;5.00;;;3.90;88.60;;;;;;4994530;28;20028;-75
2021/04/04 01:24:11;;;;;;;17.77;5.57;;;4.00;88.30;;;;;;5028175;28;20071;-75
2021/04/04 01:26:46;;;;;;;22.50;5.88;;;4.00;88.00;;;;;;5046617;28;20087;-75
2021/04/04 01:29:11;;;;;;;19.58;5.60;;;4.00;88.20;;;;;;5044933;28;20036;-75
2021/04/04 01:31:37;;;;;;;26.90;6.10;;;3.90;87.00;;;;;;5017813;28;20032;-75
2021/04/04 01:34:04;;;;;;;14.95;4.63;;;3.90;87.50;;;;;;5026107;28;20044;-75
2021/04/04 01:36:31;;;;;;;28.23;5.85;;;3.80;86.70;;;;;;5049329;28;20508;-75
2021/04/04 01:38:57;;;;;;;26.67;6.50;;;3.90;87.40;;;;;;5009836;28;20029;-75
2021/04/04 01:41:30;;;;;;;15.27;4.75;;;4.00;88.10;;;;;;5008808;28;20017;-75
2021/04/04 01:44:07;;;;;;;27.25;5.68;;;4.10;87.90;;;;;;5022080;28;20075;-75
2021/04/04 01:46:34;;;;;;;18.23;5.05;;;4.10;87.50;;;;;;5053817;28;20032;-75
2021/04/04 01:48:59;;;;;;;22.40;4.65;;;4.00;86.70;;;;;;5055866;28;20054;-75
2021/04/04 01:51:25;;;;;;;16.77;3.97;;;4.00;87.10;;;;;;5022026;28;20100;-75
2021/04/04 01:53:51;;;;;;;16.33;4.50;;;4.10;86.60;;;;;;5021093;28;20446;-75
2021/04/04 01:56:17;;;;;;;19.38;4.88;;;4.20;87.20;;;;;;5052558;28;20037;-75
2021/04/04 01:58:43;;;;;;;18.15;4.35;;;4.20;85.90;;;;;;5028726;28;20037;-75
2021/04/04 02:01:09;;;;;;;18.60;4.93;;;4.20;86.50;;;;;;5032830;28;20037;-75
2021/04/04 02:03:34;;;;;;;18.10;5.78;;;4.10;86.40;;;;;;5015196;28;20129;-75
2021/04/04 02:06:00;;;;;;;23.30;5.40;;;4.20;85.80;;;;;;5051321;28;20444;-75
2021/04/04 02:08:26;;;;;;;24.38;5.75;;;4.10;86.00;;;;;;5015356;28;20029;-75
2021/04/04 02:10:51;;;;;;;25.08;5.28;;;4.20;86.40;;;;;;5053034;28;20033;-76
2021/04/04 02:13:17;;;;;;;12.20;4.28;;;4.20;85.90;;;;;;5014088;28;20171;-75
2021/04/04 02:15:43;;;;;;;19.85;4.40;;;4.20;85.60;;;;;;5037859;28;20059;-75
2021/04/04 02:18:09;;;;;;;26.88;4.53;;;4.30;85.40;;;;;;5049150;28;20400;-75
2021/04/04 02:20:34;;;;;;;19.02;4.07;;;4.30;85.70;;;;;;5032368;28;20281;-76
2021/04/04 02:23:01;;;;;;;20.63;4.00;;;4.40;85.50;;;;;;5047190;28;20420;-76
2021/04/04 02:25:27;;;;;;;15.75;4.80;;;4.50;85.60;;;;;;5036550;28;20059;-76
2021/04/04 02:27:53;;;;;;;16.17;4.57;;;4.40;84.90;;;;;;5031824;28;20472;-76
2021/04/04 02:30:18;;;;;;;19.00;4.28;;;4.30;86.20;;;;;;5014153;28;20434;-76
2021/04/04 02:33:08;;;;;;;23.08;4.00;;;4.30;85.30;;;;;;5033983;28;20510;-76
2021/04/04 02:35:41;;;;;;;19.67;4.65;;;4.40;85.20;;;;;;5051934;28;20117;-74
2021/04/04 02:38:15;;;;;;;20.45;4.18;;;4.40;84.80;;;;;;5026939;28;20488;-75
2021/04/04 02:40:41;;;;;;;20.63;5.30;;;4.40;85.20;;;;;;5057988;28;20033;-75
2021/04/04 02:43:07;;;;;;;23.13;4.60;;;4.40;84.80;;;;;;5057768;28;20093;-75
2021/04/04 02:45:33;;;;;;;22.50;4.05;;;4.40;85.30;;;;;;5023802;28;20557;-75
2021/04/04 02:48:06;;;;;;;22.60;5.32;;;4.40;85.70;;;;;;5059891;28;20024;-75
2021/04/04 02:50:32;;;;;;;20.73;4.03;;;4.40;85.10;;;;;;5023586;28;20033;-75
2021/04/04 02:53:00;;;;;;;17.13;4.13;;;4.40;84.40;;;;;;5016466;28;20040;-75
2021/04/04 02:55:28;;;;;;;22.20;4.32;;;4.40;84.40;;;;;;5051851;28;20029;-74
2021/04/04 02:57:53;;;;;;;25.83;4.60;;;4.40;85.30;;;;;;5037990;28;20036;-75
2021/04/04 03:00:19;;;;;;;17.83;4.80;;;4.50;84.80;;;;;;5036306;28;20037;-74
2021/04/04 03:02:44;;;;;;;18.42;6.05;;;4.50;84.90;;;;;;5015877;28;20115;-74
2021/04/04 03:05:10;;;;;;;18.48;4.57;;;4.50;84.90;;;;;;5035827;28;20037;-74
2021/04/04 03:07:37;;;;;;;20.73;4.75;;;4.50;85.00;;;;;;5035347;28;20083;-73
2021/04/04 03:10:04;;;;;;;18.73;3.90;;;4.40;84.90;;;;;;5049426;28;20039;-74
2021/04/04 03:12:30;;;;;;;22.35;4.60;;;4.40;84.70;;;;;;5017602;28;20032;-74
2021/04/04 03:14:57;;;;;;;28.30;4.97;;;4.40;84.60;;;;;;5048131;28;20472;-74
2021/04/04 03:17:22;;;;;;;20.10;4.43;;;4.40;84.50;;;;;;5012142;28;20037;-74
2021/04/04 03:19:48;;;;;;;20.13;4.10;;;4.40;84.20;;;;;;5009176;28;20469;-74
2021/04/04 03:22:13;;;;;;;11.18;3.78;;;4.40;84.50;;;;;;5013699;28;20488;-74
2021/04/04 03:24:39;;;;;;;19.00;3.97;;;4.40;84.30;;;;;;5017165;28;20021;-74
2021/04/04 03:27:05;;;;;;;14.02;4.43;;;4.50;83.90;;;;;;5028173;28;20511;-74
2021/04/04 03:29:31;;;;;;;16.75;4.10;;;4.50;84.80;;;;;;5012815;28;20127;-75
2021/04/04 03:31:57;;;;;;;15.35;3.97;;;4.60;84.50;;;;;;5026861;28;20476;-74
2021/04/04 03:34:23;;;;;;;14.23;3.95;;;4.60;84.60;;;;;;5051968;28;20029;-75
2021/04/04 03:36:49;;;;;;;20.33;4.03;;;4.50;84.20;;;;;;5040628;28;20552;-74
2021/04/04 03:39:14;;;;;;;21.77;5.07;;;4.50;84.50;;;;;;5054827;28;20032;-74
2021/04/04 03:41:40;;;;;;;14.63;3.53;;;4.60;84.10;;;;;;5031027;28;20035;-74
2021/04/04 03:44:06;;;;;;;16.05;4.15;;;4.50;83.90;;;;;;5036842;28;20055;-74
2021/04/04 03:46:35;;;;;;;20.20;5.07;;;4.50;84.00;;;;;;5037979;28;20378;-75
2021/04/04 03:49:00;;;;;;;13.23;4.20;;;4.50;84.10;;;;;;5015345;28;20477;-74
2021/04/04 03:51:27;;;;;;;21.08;4.60;;;4.50;84.20;;;;;;5035651;28;23077;-73
2021/04/04 03:53:54;;;;;;;13.93;4.25;;;4.50;83.50;;;;;;5029751;28;20500;-74
2021/04/04 03:56:27;;;;;;;14.60;4.03;;;4.50;83.70;;;;;;5047452;28;20036;-74
2021/04/04 03:58:53;;;;;;;16.95;4.15;;;4.50;83.40;;;;;;5032944;28;20258;-74
2021/04/04 04:01:21;;;;;;;16.20;3.83;;;4.40;83.50;;;;;;5026536;28;20035;-74
2021/04/04 04:03:48;;;;;;;17.33;4.00;;;4.50;83.30;;;;;;5014604;28;20041;-74
2021/04/04 04:06:14;;;;;;;15.70;3.80;;;4.50;83.60;;;;;;5025789;28;20557;-73
2021/04/04 04:08:39;;;;;;;17.77;3.47;;;4.50;83.70;;;;;;5028256;28;20055;-74
2021/04/04 04:11:05;;;;;;;17.42;4.90;;;4.60;83.70;;;;;;5045417;28;20033;-74
2021/04/04 04:13:30;;;;;;;21.50;4.55;;;4.60;83.60;;;;;;5032790;28;20036;-74
2021/04/04 04:15:56;;;;;;;15.10;5.03;;;4.60;83.30;;;;;;5030987;28;20039;-74
2021/04/04 04:18:22;;;;;;;17.48;4.25;;;4.60;83.30;;;;;;5023898;28;20039;-74
2021/04/04 04:20:47;;;;;;;18.23;4.15;;;4.60;83.70;;;;;;5010041;28;20056;-74
2021/04/04 04:23:13;;;;;;;11.65;4.57;;;4.60;83.70;;;;;;5030286;28;20178;-74
2021/04/04 04:25:39;;;;;;;27.90;5.18;;;4.60;83.60;;;;;;5045608;28;20039;-74
2021/04/04 04:28:04;;;;;;;16.33;4.15;;;4.60;83.10;;;;;;5022547;28;20345;-74
2021/04/04 04:30:30;;;;;;;21.50;4.32;;;4.60;83.50;;;;;;5054478;28;20039;-74
2021/04/04 04:32:59;;;;;;;18.00;3.85;;;4.60;83.50;;;;;;5069580;28;20042;-74
2021/04/04 04:35:24;;;;;;;21.08;4.53;;;4.70;83.80;;;;;;5054521;28;20040;-74
2021/04/04 04:37:50;;;;;;;16.92;4.60;;;4.50;83.70;;;;;;5038722;28;20033;-73
2021/04/04 04:40:16;;;;;;;25.98;4.82;;;4.60;83.80;;;;;;5050014;28;20381;-74
2021/04/04 04:42:42;;;;;;;17.92;4.60;;;4.70;83.60;;;;;;5047070;28;20302;-74
2021/04/04 04:45:14;;;;;;;15.50;4.55;;;4.60;83.30;;;;;;5034556;28;20044;-74
2021/04/04 04:47:39;;;;;;;23.23;6.25;;;4.60;83.90;;;;;;5029668;28;20519;-74
2021/04/04 04:50:05;;;;;;;19.20;4.40;;;4.60;83.30;;;;;;5035222;28;20020;-75
2021/04/04 04:52:31;;;;;;;20.80;5.57;;;4.60;83.50;;;;;;5048425;28;20132;-74
2021/04/04 04:54:56;;;;;;;15.80;3.33;;;4.50;83.40;;;;;;5026658;28;20493;-74
2021/04/04 04:57:22;;;;;;;12.23;3.17;;;4.60;83.30;;;;;;5046512;28;20028;-74
2021/04/04 04:59:48;;;;;;;16.83;4.40;;;4.80;82.40;;;;;;5028801;28;20040;-74
2021/04/04 05:02:13;;;;;;;13.05;3.05;;;4.80;82.90;;;;;;5020701;28;20067;-74
2021/04/04 05:04:39;;;;;;;15.85;4.53;;;4.80;82.70;;;;;;5028447;28;20036;-74
2021/04/04 05:07:04;;;;;;;22.80;5.00;;;4.80;82.20;;;;;;5044552;28;20037;-74
2021/04/04 05:09:32;;;;;;;19.45;5.28;;;4.80;82.20;;;;;;5034484;28;20293;-74
2021/04/04 05:11:57;;;;;;;9.35;2.85;;;4.90;82.60;;;;;;5013919;28;20162;-74
2021/04/04 05:14:23;;;;;;;19.15;3.97;;;4.80;82.90;;;;;;5026075;28;20032;-75
2021/04/04 05:16:49;;;;;;;17.27;4.57;;;4.80;82.40;;;;;;5008878;28;20538;-74
2021/04/04 05:19:14;;;;;;;13.60;4.75;;;4.80;82.10;;;;;;5009383;28;20912;-74
2021/04/04 05:21:42;;;;;;;12.77;4.25;;;4.80;82.50;;;;;;5016539;28;20166;-74
2021/04/04 05:24:12;;;;;;;10.55;3.83;;;4.80;82.70;;;;;;5012858;28;20028;-75
2021/04/04 05:26:45;;;;;;;16.80;5.30;;;4.90;81.80;;;;;;5046523;28;20022;-74
2021/04/04 05:29:12;;;;;;;27.20;5.53;;;4.80;81.80;;;;;;5032846;28;20567;-75
2021/04/04 05:31:53;;;;;;;18.17;4.78;;;4.80;82.60;;;;;;5035325;28;20394;-74
2021/04/04 05:34:27;;;;;;;12.40;4.28;;;4.60;82.80;;;;;;5016393;28;20044;-74
2021/04/04 05:36:57;;;;;;;23.77;5.65;;;4.60;82.50;;;;;;5031882;28;20032;-74
2021/04/04 05:39:24;;;;;;;22.33;5.28;;;4.60;82.50;;;;;;5034022;28;20079;-74
2021/04/04 05:41:51;;;;;;;13.52;3.70;;;4.60;83.10;;;;;;5028111;28;20036;-74
2021/04/04 05:44:23;;;;;;;13.57;4.35;;;4.70;82.80;;;;;;5029883;28;20030;-75
2021/04/04 05:46:55;;;;;;;16.92;3.97;;;4.70;82.60;;;;;;5028612;28;20369;-75
2021/04/04 05:49:33;;;;;;;15.23;4.22;;;4.70;82.80;;;;;;5026457;28;20052;-74
2021/04/04 05:52:19;;;;;;;16.73;3.90;;;4.70;83.10;;;;;;5011812;28;20124;-75
2021/04/04 05:55:09;;;;;;;14.93;4.13;;;4.80;82.40;;;;;;5031619;28;20059;-75
2021/04/04 05:57:52;;;;;;;12.38;3.40;;;4.70;82.10;;;;;;5045498;28;20044;-74
2021/04/04 06:00:18;;;;;;;8.57;3.95;;;4.80;82.50;;;;;;5040798;28;20090;-74
2021/04/04 06:03:02;;;;;;;15.23;4.93;;;4.80;82.60;;;;;;5025395;28;20461;-74
2021/04/04 06:05:58;;;;;;;7.85;3.40;;;4.90;82.20;;;;;;5047229;28;20026;-74
2021/04/04 06:08:54;;;;;;;16.37;3.83;;;5.00;81.50;;;;;;5047933;28;20051;-74
2021/04/04 06:11:44;;;;;;;24.38;5.78;;;5.00;81.60;;;;;;5047418;28;20291;-74
2021/04/04 06:14:14;;;;;;;18.25;4.38;;;5.00;82.00;;;;;;5043264;28;20515;-74
2021/04/04 06:16:58;;;;;;;18.58;4.70;;;5.10;81.60;;;;;;5021967;28;20025;-74
2021/04/04 06:19:42;;;;;;;19.13;5.80;;;5.20;81.30;;;;;;5051734;28;20055;-74
2021/04/04 06:22:29;;;;;;;10.15;4.00;;;5.10;81.80;;;;;;5051958;28;20059;-73
2021/04/04 06:25:03;;;;;;;14.23;4.80;;;5.10;82.10;;;;;;5038373;28;20028;-74
2021/04/04 06:27:40;;;;;;;25.50;6.32;;;5.20;81.90;;;;;;5045435;28;20070;-74
2021/04/04 06:30:51;;;;;;;19.05;7.38;;;5.20;81.70;;;;;;5012289;28;20043;-74
2021/04/04 06:33:42;;;;;;;16.52;6.70;;;5.20;82.30;;;;;;5008888;28;20524;-74
2021/04/04 06:36:15;;;;;;;15.63;6.25;;;5.30;81.20;;;;;;5031988;28;20566;-74
2021/04/04 06:39:18;;;;;;;21.05;7.43;;;5.30;81.80;;;;;;5032400;28;20517;-74
2021/04/04 06:41:52;;;;;;;14.88;6.85;;;5.30;82.30;;;;;;5048602;28;20253;-74
2021/04/04 06:44:36;;;;;;;26.05;8.85;;;5.30;81.70;;;;;;5028095;28;20075;-74
2021/04/04 06:47:47;;;;;;;16.42;7.57;;;5.30;82.30;;;;;;5043106;28;20078;-74
2021/04/04 06:50:23;;;;;;;15.13;5.70;;;5.40;82.00;;;;;;5039899;28;20083;-74
2021/04/04 06:52:51;;;;;;;16.83;7.00;;;5.40;82.20;;;;;;5026117;28;20523;-74
2021/04/04 06:55:35;;;;;;;20.90;8.15;;;5.50;82.00;;;;;;5042092;28;20389;-73
2021/04/04 06:58:02;;;;;;;19.17;7.60;;;5.50;82.80;;;;;;5051448;28;20063;-74
2021/04/04 07:00:52;;;;;;;14.85;6.57;;;5.40;82.20;;;;;;5052589;28;20087;-73
2021/04/04 07:03:23;;;;;;;22.88;9.63;;;5.50;81.80;;;;;;5050239;28;20094;-74
2021/04/04 07:06:09;;;;;;;17.10;7.53;;;5.60;81.70;;;;;;5044031;28;20035;-74
2021/04/04 07:08:45;;;;;;;14.23;7.35;;;5.70;81.50;;;;;;5010192;28;20144;-74
2021/04/04 07:11:18;;;;;;;22.10;7.65;;;5.70;81.70;;;;;;5010886;28;20039;-74
2021/04/04 07:13:48;;;;;;;14.27;6.20;;;5.80;81.30;;;;;;5058690;28;20025;-74
2021/04/04 07:16:52;;;;;;;21.08;8.30;;;5.80;81.50;;;;;;5056701;28;20082;-74
2021/04/04 07:19:35;;;;;;;24.70;11.85;;;5.90;81.00;;;;;;5054613;28;20037;-73
2021/04/04 07:22:25;;;;;;;16.38;7.13;;;5.90;80.30;;;;;;5052760;28;20102;-74
2021/04/04 07:25:04;;;;;;;15.30;5.20;;;5.80;81.60;;;;;;5051245;28;20033;-74
2021/04/04 07:27:29;;;;;;;13.10;5.22;;;5.80;82.00;;;;;;5037099;28;20124;-74
2021/04/04 07:30:02;;;;;;;13.52;5.65;;;5.80;81.60;;;;;;5048264;28;20135;-74
2021/04/04 07:32:33;;;;;;;14.25;5.75;;;5.90;81.60;;;;;;5049351;28;20033;-74
2021/04/04 07:35:06;;;;;;;15.32;5.70;;;5.90;81.70;;;;;;5060367;28;20423;-74
2021/04/04 07:37:50;;;;;;;11.57;6.15;;;6.00;81.20;;;;;;5046133;28;20173;-75
2021/04/04 07:40:24;;;;;;;12.35;6.63;;;6.00;80.70;;;;;;5050244;28;20045;-74
2021/04/04 07:42:54;;;;;;;18.27;6.97;;;6.10;81.60;;;;;;5027851;28;20484;-74
2021/04/04 07:45:35;;;;;;;14.00;7.32;;;6.00;81.70;;;;;;5006881;28;20065;-74
2021/04/04 07:48:23;;;;;;;15.30;5.97;;;6.00;81.80;;;;;;5024710;28;20135;-75
2021/04/04 07:50:59;;;;;;;10.60;5.38;;;6.10;81.40;;;;;;5027265;28;20032;-75
2021/04/04 07:53:34;;;;;;;;;;;6.10;81.50;;;;;;5021289;28;20041;-74
2021/04/04 07:56:15;;;;;;;10.57;3.80;;;6.20;81.50;;;;;;5025525;28;20376;-75
2021/04/04 07:59:15;;;;;;;9.55;4.10;;;6.20;81.40;;;;;;5049834;28;20119;-74
2021/04/04 08:01:43;;;;;;;9.80;3.65;;;6.20;81.90;;;;;;4991334;28;20540;-74
2021/04/04 08:04:09;;;;;;;9.57;4.05;;;6.20;81.90;;;;;;5045845;28;20033;-74
2021/04/04 08:06:43;;;;;;;10.65;4.38;;;6.20;81.30;;;;;;5021354;28;20130;-74
2021/04/04 08:09:29;;;;;;;11.93;3.95;;;6.30;81.30;;;;;;5035451;28;20602;-75
2021/04/04 08:12:15;;;;;;;8.63;4.20;;;6.20;81.40;;;;;;5034917;28;20087;-74
2021/04/04 08:14:57;;;;;;;11.55;5.82;;;6.20;81.20;;;;;;5051637;28;20029;-74
2021/04/04 08:17:22;;;;;;;14.05;5.43;;;6.20;81.40;;;;;;5018080;28;20037;-75
2021/04/04 08:20:02;;;;;;;15.52;5.78;;;6.30;81.10;;;;;;5019800;28;20162;-75
2021/04/04 08:22:33;;;;;;;15.10;6.13;;;6.30;81.40;;;;;;5047554;28;20047;-74
2021/04/04 08:25:11;;;;;;;12.38;5.15;;;6.40;81.20;;;;;;5023248;28;20400;-74
2021/04/04 08:27:45;;;;;;;10.25;4.28;;;6.50;81.40;;;;;;5026397;28;20026;-74
2021/04/04 08:30:17;;;;;;;14.95;4.63;;;6.60;81.20;;;;;;5046559;28;20075;-76
2021/04/04 08:33:14;;;;;;;10.73;5.38;;;6.50;81.20;;;;;;5055508;28;20036;-76
2021/04/04 08:35:40;;;;;;;11.07;3.67;;;6.60;81.10;;;;;;5033897;28;20032;-76
2021/04/04 08:38:09;;;;;;;8.80;3.42;;;6.70;81.10;;;;;;5028908;28;20043;-73
2021/04/04 08:40:35;;;;;;;8.00;3.17;;;6.70;81.10;;;;;;5028937;28;20030;-76
2021/04/04 08:43:00;;;;;;;8.98;3.72;;;6.80;80.90;;;;;;5033368;28;20040;-76
2021/04/04 08:45:37;;;;;;;5.68;3.75;;;6.90;81.20;;;;;;5045204;28;20033;-76
2021/04/04 08:48:03;;;;;;;9.45;3.53;;;6.90;80.90;;;;;;5029116;28;20041;-76
2021/04/04 08:50:29;;;;;;;12.63;5.60;;;6.90;80.90;;;;;;5031480;28;20507;-76
2021/04/04 08:52:56;;;;;;;11.35;4.03;;;7.00;80.60;;;;;;5020643;28;20036;-75
2021/04/04 08:55:26;;;;;;;4.82;2.20;;;7.10;80.90;;;;;;5028013;28;20029;-76
2021/04/04 08:57:52;;;;;;;5.05;1.50;;;7.20;80.80;;;;;;5023458;28;20480;-76
2021/04/04 09:00:19;;;;;;;10.10;2.45;;;7.20;80.50;;;;;;5027266;28;20068;-76
2021/04/04 09:02:59;;;;;;;9.20;2.03;;;7.30;80.40;;;;;;5057115;28;20065;-76
2021/04/04 09:05:25;;;;;;;6.72;2.47;;;7.30;80.00;;;;;;5029817;28;20033;-76
2021/04/04 09:07:51;;;;;;;8.57;2.58;;;7.30;80.40;;;;;;5028228;28;20254;-76
2021/04/04 09:10:17;;;;;;;7.55;2.40;;;7.40;80.20;;;;;;5053533;28;20102;-76
2021/04/04 09:12:43;;;;;;;6.18;2.22;;;7.40;79.50;;;;;;5036232;28;20120;-75
2021/04/04 09:15:10;;;;;;;8.23;2.90;;;7.50;80.20;;;;;;5051693;28;20134;-75
2021/04/04 09:17:36;;;;;;;5.25;3.03;;;7.60;80.60;;;;;;5015137;28;20042;-75
2021/04/04 09:20:05;;;;;;;6.40;2.47;;;7.60;80.20;;;;;;5034410;28;20597;-75
2021/04/04 09:22:31;;;;;;;4.50;2.17;;;7.70;80.00;;;;;;5030196;28;20044;-74
2021/04/04 09:25:01;;;;;;;4.50;2.03;;;7.80;80.40;;;;;;5011987;28;20392;-75
2021/04/04 09:27:28;;;;;;;6.18;1.98;;;7.90;80.10;;;;;;5010983;28;20029;-75
2021/04/04 09:29:57;;;;;;;7.60;2.47;;;8.00;80.50;;;;;;5027409;28;20123;-75
2021/04/04 09:32:38;;;;;;;5.70;1.92;;;8.10;80.60;;;;;;5026632;28;20037;-75
2021/04/04 09:35:05;;;;;;;6.32;2.08;;;8.30;80.50;;;;;;5023054;28;20033;-75
2021/04/04 09:37:30;;;;;;;5.28;2.13;;;8.40;79.20;;;;;;5032481;28;20488;-75
2021/04/04 09:39:56;;;;;;;6.88;1.80;;;8.50;79.80;;;;;;5040212;28;20059;-75
2021/04/04 09:42:21;;;;;;;2.42;1.38;;;8.60;79.90;;;;;;5009529;28;20397;-75
2021/04/04 09:44:47;;;;;;;7.75;1.80;;;8.70;79.80;;;;;;5025047;28;20025;-74
2021/04/04 09:47:13;;;;;;;7.65;2.40;;;8.80;79.20;;;;;;5028800;28;20032;-74
2021/04/04 09:49:50;;;;;;;8.45;3.75;;;8.90;79.40;;;;;;5015097;28;20112;-75
2021/04/04 09:52:27;;;;;;;9.68;3.78;;;9.10;79.40;;;;;;5008620;28;20077;-74
2021/04/04 09:55:02;;;;;;;6.97;3.55;;;9.20;79.30;;;;;;5043276;28;20040;-75
2021/04/04 09:57:28;;;;;;;2.78;1.67;;;9.30;79.20;;;;;;5053983;28;20037;-74
2021/04/04 09:59:53;;;;;;;5.22;2.47;;;9.30;76.50;;;;;;5031197;28;20484;-74
2021/04/04 10:02:33;;;;;;;5.68;2.70;;;9.40;78.30;;;;;;5054982;28;20083;-74
2021/04/04 10:04:58;;;;;;;6.38;2.35;;;9.40;78.40;;;;;;5052133;28;20024;-74
2021/04/04 10:07:28;;;;;;;6.43;2.90;;;9.50;78.70;;;;;;5027651;28;20515;-74
2021/04/04 10:09:53;;;;;;;3.25;2.55;;;9.60;78.60;;;;;;5035690;28;20032;-73
2021/04/04 10:12:19;;;;;;;10.77;2.58;;;9.70;78.00;;;;;;5011538;28;20335;-73
2021/04/04 10:15:08;;;;;;;6.30;2.75;;;9.60;77.40;;;;;;5047554;28;20029;-73
2021/04/04 10:17:34;;;;;;;5.80;2.25;;;9.80;78.50;;;;;;5037679;28;20037;-74
2021/04/04 10:20:01;;;;;;;7.18;2.67;;;9.90;77.10;;;;;;5049018;28;20494;-73
2021/04/04 10:22:26;;;;;;;9.23;2.33;;;10.00;77.10;;;;;;5022959;28;20079;-74
2021/04/04 10:24:52;;;;;;;6.85;2.80;;;10.00;75.20;;;;;;5015927;28;20071;-74
2021/04/04 10:27:25;;;;;;;7.18;3.22;;;10.00;76.00;;;;;;5025304;28;20029;-74
2021/04/04 10:30:17;;;;;;;12.18;4.57;;;10.10;76.30;;;;;;5041205;28;20413;-73
2021/04/04 10:32:46;;;;;;;14.32;7.07;;;10.20;75.80;;;;;;5051337;28;20029;-73
2021/04/04 10:35:26;;;;;;;14.63;8.32;;;10.20;75.80;;;;;;5027423;28;20040;-73
2021/04/04 10:37:59;;;;;;;7.88;3.83;;;10.30;75.60;;;;;;5011648;28;20086;-74
2021/04/04 10:40:25;;;;;;;14.98;4.20;;;10.30;75.00;;;;;;5010025;28;20044;-74
2021/04/04 10:42:56;;;;;;;7.63;2.65;;;10.40;75.10;;;;;;5015287;28;20249;-73
2021/04/04 10:45:22;;;;;;;6.43;2.38;;;10.40;74.10;;;;;;5033957;28;20644;-74
2021/04/04 10:47:48;;;;;;;8.95;3.08;;;10.50;74.80;;;;;;5031805;28;20446;-73
2021/04/04 10:50:14;;;;;;;5.90;2.83;;;10.40;74.40;;;;;;5047480;28;20398;-74
2021/04/04 10:52:41;;;;;;;6.85;2.33;;;10.50;74.60;;;;;;5038850;28;20032;-74
2021/04/04 10:55:08;;;;;;;7.68;3.10;;;10.30;71.00;;;;;;5041803;28;20548;-75
2021/04/04 10:57:34;;;;;;;7.30;2.60;;;10.40;74.80;;;;;;5023064;28;20033;-74
2021/04/04 11:00:00;;;;;;;13.57;9.60;;;10.60;74.60;;;;;;5041836;28;20052;-73
2021/04/04 11:02:25;;;;;;;15.70;7.57;;;10.70;74.70;;;;;;5015069;28;20134;-73
2021/04/04 11:04:51;;;;;;;16.30;7.65;;;10.70;74.00;;;;;;5033939;28;20032;-73
2021/04/04 11:07:20;;;;;;;14.82;6.93;;;10.80;73.80;;;;;;5035397;28;20037;-74
2021/04/04 11:09:48;;;;;;;8.18;4.03;;;10.80;73.30;;;;;;5052785;28;20026;-74
2021/04/04 11:12:15;;;;;;;20.02;10.75;;;10.80;71.70;;;;;;5036400;28;20110;-74
2021/04/04 11:14:41;;;;;;;17.42;10.07;;;10.70;72.70;;;;;;5029913;28;20029;-73
2021/04/04 11:17:07;;;;;;;14.93;6.72;;;10.80;73.30;;;;;;5032410;28;20190;-74
2021/04/04 11:19:32;;;;;;;17.90;10.82;;;10.60;72.00;;;;;;5018847;28;20540;-75
2021/04/04 11:21:58;;;;;;;27.67;16.98;;;10.80;72.80;;;;;;5030176;28;20036;-73
2021/04/04 11:24:24;;;;;;;25.83;11.13;;;10.90;73.40;;;;;;5009773;28;20037;-75
2021/04/04 11:26:58;;;;;;;30.13;14.60;;;10.90;72.60;;;;;;5036551;28;20029;-74
2021/04/04 11:29:24;;;;;;;27.95;14.30;;;11.00;72.20;;;;;;5041653;28;20149;-74
2021/04/04 11:31:57;;;;;;;35.33;18.38;;;11.00;72.00;;;;;;5027602;28;20032;-73
2021/04/04 11:34:31;;;;;;;37.03;21.98;;;10.90;72.20;;;;;;5035982;28;20123;-74
2021/04/04 11:37:01;;;;;;;41.70;22.50;;;11.00;72.80;;;;;;5032313;28;20052;-75
2021/04/04 11:39:26;;;;;;;44.83;24.83;;;11.00;71.80;;;;;;5026976;28;20025;-74
2021/04/04 11:42:00;;;;;;;46.00;24.48;;;11.00;71.80;;;;;;5025907;28;20138;-74
2021/04/04 11:44:32;;;;;;;51.72;28.83;;;10.80;71.30;;;;;;5025503;28;20120;-74
2021/04/04 11:47:04;;;;;;;49.25;26.52;;;10.90;71.70;;;;;;5028377;28;20403;-74
2021/04/04 11:49:33;;;;;;;48.55;29.45;;;10.90;71.70;;;;;;5038598;28;20466;-74
2021/04/04 11:52:08;;;;;;;49.70;29.60;;;11.10;71.40;;;;;;5052978;28;20032;-74
2021/04/04 11:54:45;;;;;;;41.58;21.45;;;11.10;71.50;;;;;;5049060;28;20074;-74
2021/04/04 11:57:23;;;;;;;40.58;22.23;;;11.00;70.90;;;;;;5054558;28;20388;-74
2021/04/04 11:59:49;;;;;;;49.15;27.83;;;10.80;70.40;;;;;;5040451;28;20573;-74
2021/04/04 12:02:16;;;;;;;47.13;27.48;;;10.90;71.60;;;;;;5052659;28;20106;-74
2021/04/04 12:04:47;;;;;;;35.83;18.38;;;11.00;71.30;;;;;;5027666;28;20057;-74
2021/04/04 12:07:14;;;;;;;41.15;23.13;;;11.10;70.20;;;;;;5052019;28;20025;-74
2021/04/04 12:09:41;;;;;;;36.38;20.48;;;10.90;71.20;;;;;;5029328;28;20049;-74
2021/04/04 12:12:07;;;;;;;38.92;20.52;;;10.90;70.70;;;;;;5013383;28;20047;-74
2021/04/04 12:14:48;;;;;;;37.30;21.33;;;10.90;70.90;;;;;;5016640;28;20025;-74
2021/04/04 12:17:14;;;;;;;40.10;24.27;;;10.80;70.90;;;;;;5042811;28;20029;-74
2021/04/04 12:19:42;;;;;;;39.58;22.30;;;10.90;71.30;;;;;;5007234;28;20035;-74
2021/04/04 12:22:07;;;;;;;27.15;13.68;;;11.00;71.30;;;;;;5022562;28;20065;-74
2021/04/04 12:24:40;;;;;;;29.95;16.30;;;11.00;68.10;;;;;;5031483;28;20512;-74
2021/04/04 12:27:07;;;;;;;23.98;16.45;;;10.50;67.80;;;;;;5044789;28;20539;-75
2021/04/04 12:29:58;;;;;;;26.75;19.02;;;10.70;70.80;;;;;;5015223;28;20033;-75
2021/04/04 12:32:29;;;;;;;26.30;15.30;;;11.00;70.50;;;;;;5048026;28;21013;-74
2021/04/04 12:34:57;;;;;;;25.77;16.17;;;11.10;70.00;;;;;;5024040;28;20452;-74
2021/04/04 12:37:24;;;;;;;22.15;15.05;;;11.60;70.30;;;;;;5041772;28;20574;-74
2021/04/04 12:39:54;;;;;;;23.25;15.85;;;11.70;69.90;;;;;;5026409;28;20096;-74
2021/04/04 12:42:25;;;;;;;23.20;15.85;;;11.60;69.60;;;;;;5020069;28;20158;-74
2021/04/04 12:44:50;;;;;;;22.85;15.55;;;11.90;69.60;;;;;;5023747;28;20548;-73
2021/04/04 12:47:20;;;;;;;19.15;12.35;;;11.90;69.20;;;;;;5019011;28;20112;-74
2021/04/04 12:50:26;;;;;;;21.38;13.70;;;11.70;68.00;;;;;;5012877;28;20265;-73
2021/04/04 12:52:52;;;;;;;19.67;13.52;;;12.00;69.70;;;;;;5036156;28;20090;-75
2021/04/04 12:55:22;;;;;;;16.45;12.10;;;12.20;68.90;;;;;;5016544;28;20037;-74
2021/04/04 12:57:49;;;;;;;19.42;11.57;;;12.30;68.50;;;;;;5044029;28;20040;-74
2021/04/04 13:00:26;;;;;;;20.52;13.50;;;12.10;66.40;;;;;;5028941;28;20119;-74
2021/04/04 13:02:56;;;;;;;19.10;12.85;;;12.00;68.50;;;;;;5032440;28;20036;-75